Time;durP1;ratioP1;P1;durP2;ratioP2;P2;SDS_P1;SDS_P2;PMS_P1;PMS_P2;Temp;Humidity;BMP_temperature;BMP_pressure;BME280_temperature;BME280_humidity;BME280_pressure;Samples;Min_cycle;Max_cycle;Signal;HPM_P1;HPM_P2
2021/12/11 00:04:12;;;;;;;114.60;48.20;;;;;;;-1.43;84.23;97557.34;212759;1322;22597;-71
2021/12/11 00:09:31;;;;;;;98.20;40.70;;;;;;;-1.50;83.74;97567.65;213800;1321;25533;-72
2021/12/11 00:14:37;;;;;;;86.50;37.00;;;;;;;-1.60;83.69;97567.33;212970;1319;25536;-71
2021/12/11 00:19:40;;;;;;;106.10;40.00;;;;;;;-1.69;84.01;97564.58;213910;1322;22676;-71
2021/12/11 00:24:44;;;;;;;120.40;42.00;;;;;;;-1.68;84.17;97569.03;213366;1321;24292;-72
2021/12/11 00:29:47;;;;;;;88.40;34.30;;;;;;;-1.65;84.18;97577.96;213797;1323;22587;-71
2021/12/11 00:34:51;;;;;;;81.40;33.50;;;;;;;-1.67;83.85;97583.02;213373;1321;22555;-71
2021/12/11 00:39:59;;;;;;;87.00;35.00;;;;;;;-1.77;83.77;97597.88;214106;1322;24475;-70
2021/12/11 00:45:15;;;;;;;102.10;38.30;;;;;;;-1.82;83.96;97618.38;214031;1323;22673;-71
2021/12/11 00:50:36;;;;;;;117.30;43.80;;;;;;;-1.81;84.05;97615.91;214260;1320;22568;-70
2021/12/11 00:55:47;;;;;;;101.00;38.30;;;;;;;-1.75;84.52;97632.10;213525;1319;22880;-72
2021/12/11 01:01:07;;;;;;;123.10;43.70;;;;;;;-1.68;84.81;97643.62;213702;1320;24239;-71
2021/12/11 01:06:13;;;;;;;129.90;43.40;;;;;;;-1.64;84.72;97648.73;212869;1323;25259;-71
2021/12/11 01:11:41;;;;;;;130.20;45.60;;;;;;;-1.58;84.98;97653.50;213763;1323;22620;-71
2021/12/11 01:17:26;;;;;;;128.80;45.30;;;;;;;-1.47;84.87;97658.41;213819;1323;23364;-71
2021/12/11 01:22:35;;;;;;;125.60;45.20;;;;;;;-1.35;85.07;97660.13;213553;1318;22622;-71
2021/12/11 01:27:42;;;;;;;121.20;45.90;;;;;;;-1.29;84.98;97665.81;213768;1316;22641;-71
2021/12/11 01:32:53;;;;;;;111.90;41.90;;;;;;;-1.24;85.23;97673.20;213596;1323;22614;-71
2021/12/11 01:38:04;;;;;;;137.80;50.10;;;;;;;-1.25;84.80;97675.59;212430;1323;22730;-72
2021/12/11 01:43:09;;;;;;;127.70;50.80;;;;;;;-1.27;84.58;97685.60;213567;1319;22577;-72
2021/12/11 01:48:16;;;;;;;125.80;51.60;;;;;;;-1.31;84.54;97690.20;213734;1323;22801;-71
2021/12/11 01:53:26;;;;;;;124.10;50.90;;;;;;;-1.31;84.39;97689.56;214009;1321;23065;-71
2021/12/11 01:58:35;;;;;;;;;;;;;;;-1.37;84.23;97689.11;214040;1322;22638;-71
2021/12/11 02:03:38;;;;;;;140.00;55.00;;;;;;;-1.45;84.15;97694.59;214799;1323;22683;-71
2021/12/11 02:08:42;;;;;;;127.30;55.10;;;;;;;-1.47;84.28;97704.13;213675;1323;22613;-71
2021/12/11 02:13:53;;;;;;;131.00;53.40;;;;;;;-1.43;84.32;97715.64;213545;1320;22607;-71
2021/12/11 02:19:02;;;;;;;132.10;54.00;;;;;;;-1.34;84.90;97719.31;213211;1319;22572;-71
2021/12/11 02:24:23;;;;;;;108.20;46.70;;;;;;;-1.23;85.13;97726.19;213583;1316;22715;-71
2021/12/11 02:29:42;;;;;;;125.00;47.20;;;;;;;-1.18;84.63;97725.37;213892;1316;24296;-72
2021/12/11 02:34:50;;;;;;;141.10;55.40;;;;;;;-1.20;84.50;97733.06;213985;1320;24227;-71
2021/12/11 02:39:54;;;;;;;136.80;55.80;;;;;;;-1.18;84.32;97739.71;213734;1320;22649;-71
2021/12/11 02:45:01;;;;;;;145.70;58.30;;;;;;;-1.14;84.60;97746.04;213782;1322;24285;-71
2021/12/11 02:50:14;;;;;;;133.80;54.20;;;;;;;-1.12;84.72;97753.91;213636;1323;24357;-72
2021/12/11 02:55:49;;;;;;;143.00;55.40;;;;;;;-1.08;84.64;97760.81;213655;1322;24464;-71
2021/12/11 03:00:59;;;;;;;127.40;50.40;;;;;;;-1.03;84.61;97771.70;213837;1321;23065;-71
2021/12/11 03:06:20;;;;;;;122.20;51.90;;;;;;;-1.00;84.59;97775.29;214360;1323;22596;-71
2021/12/11 03:11:36;;;;;;;119.50;47.30;;;;;;;-0.97;84.63;97778.02;213777;1318;22578;-71
2021/12/11 03:16:46;;;;;;;123.30;52.10;;;;;;;-1.00;84.27;97778.48;213845;1322;25435;-69
2021/12/11 03:21:50;;;;;;;122.90;51.50;;;;;;;-1.02;84.19;97780.30;215623;1323;22603;-70
2021/12/11 03:26:57;;;;;;;121.60;52.40;;;;;;;-1.00;84.11;97787.55;213204;1324;22644;-69
2021/12/11 03:32:00;;;;;;;120.30;50.10;;;;;;;-1.00;84.06;97787.81;212491;1324;22596;-71
2021/12/11 03:37:05;;;;;;;122.00;53.10;;;;;;;-0.97;84.13;97789.59;213377;1321;22590;-72
2021/12/11 03:42:39;;;;;;;112.40;48.90;;;;;;;-0.97;84.30;97791.16;213594;1324;24491;-72
2021/12/11 03:47:51;;;;;;;105.60;45.20;;;;;;;-0.98;84.31;97794.69;213100;1325;25338;-70
2021/12/11 03:52:54;;;;;;;118.00;48.40;;;;;;;-1.01;84.24;97794.98;213554;1324;22599;-71
2021/12/11 03:58:00;;;;;;;98.00;44.00;;;;;;;-1.02;84.38;97795.60;213618;1321;22580;-70
2021/12/11 04:03:07;;;;;;;99.30;44.20;;;;;;;-1.02;84.19;97799.28;213216;1326;22588;-71
2021/12/11 04:08:13;;;;;;;99.30;42.50;;;;;;;-1.01;83.97;97806.98;213289;1324;22778;-71
2021/12/11 04:13:16;;;;;;;108.00;46.40;;;;;;;-1.03;84.17;97806.48;213349;1316;22736;-70
2021/12/11 04:18:19;;;;;;;101.10;41.80;;;;;;;-1.06;84.18;97812.05;212432;1320;22728;-71
2021/12/11 04:23:22;;;;;;;116.90;46.00;;;;;;;-1.08;84.23;97822.38;212368;1323;24336;-71
2021/12/11 04:28:31;;;;;;;96.90;41.70;;;;;;;-1.04;84.34;97826.29;212364;1322;25403;-71
2021/12/11 04:33:41;;;;;;;94.60;42.90;;;;;;;-0.99;84.33;97828.98;214071;1323;22599;-71
2021/12/11 04:38:45;;;;;;;76.00;33.80;;;;;;;-0.98;84.76;97832.17;213933;1322;24899;-71
2021/12/11 04:43:53;;;;;;;78.40;36.90;;;;;;;-1.05;83.89;97836.09;213478;1321;24336;-71
2021/12/11 04:49:07;;;;;;;86.90;37.80;;;;;;;-1.11;84.18;97839.30;213800;1322;26833;-71
2021/12/11 04:54:40;;;;;;;75.40;36.00;;;;;;;-1.02;84.65;97850.87;213765;1316;27952;-71
2021/12/11 05:00:18;;;;;;;69.70;35.50;;;;;;;-0.89;84.69;97857.41;213823;1322;22610;-72
2021/12/11 05:10:40;;;;;;;74.60;35.80;;;;;;;-0.76;84.55;97864.95;213507;1323;22767;-72
2021/12/11 05:15:46;;;;;;;77.80;36.40;;;;;;;-0.71;84.69;97874.67;213538;1323;22577;-71
2021/12/11 05:20:55;;;;;;;66.10;31.60;;;;;;;-0.67;84.11;97877.30;213399;1324;24439;-72
2021/12/11 05:26:09;;;;;;;65.40;30.70;;;;;;;-0.76;83.87;97881.14;213462;1320;22703;-70
2021/12/11 05:31:27;;;;;;;70.90;34.00;;;;;;;-0.87;83.80;97880.32;213600;1323;22617;-71
2021/12/11 05:41:55;;;;;;;57.90;28.10;;;;;;;-0.71;84.54;97897.12;214712;1323;22568;-72
2021/12/11 05:47:16;;;;;;;64.20;30.40;;;;;;;-0.58;84.70;97901.48;212689;1322;22624;-70
2021/12/11 05:52:20;;;;;;;68.70;33.70;;;;;;;-0.52;84.63;97904.92;212376;1321;22609;-72
2021/12/11 05:57:28;;;;;;;72.80;36.30;;;;;;;-0.48;84.54;97913.92;213523;1323;22591;-71
2021/12/11 06:02:31;;;;;;;80.60;37.10;;;;;;;-0.46;84.11;97919.70;213723;1316;22592;-72
2021/12/11 06:07:33;;;;;;;73.40;35.70;;;;;;;-0.38;84.63;97919.47;212515;1324;24394;-71
2021/12/11 06:12:35;;;;;;;64.70;33.70;;;;;;;-0.30;84.44;97935.33;213722;1317;23009;-72
2021/12/11 06:17:41;;;;;;;61.10;29.80;;;;;;;-0.28;84.31;97941.89;213952;1320;22760;-69
2021/12/11 06:22:46;;;;;;;73.30;35.50;;;;;;;-0.37;83.76;97941.47;213734;1320;24391;-71
2021/12/11 06:27:49;;;;;;;71.80;37.30;;;;;;;-0.52;83.33;97949.29;213756;1318;22605;-71
2021/12/11 06:32:53;;;;;;;75.10;34.80;;;;;;;-0.60;83.56;97953.91;213864;1323;24353;-72
2021/12/11 06:37:56;;;;;;;66.10;32.50;;;;;;;-0.66;83.28;97956.44;213606;1321;24257;-71
2021/12/11 06:42:59;;;;;;;70.60;32.00;;;;;;;-0.73;83.40;97967.47;213583;1323;23085;-71
2021/12/11 06:48:02;;;;;;;71.30;35.10;;;;;;;-0.79;83.66;97970.73;213467;1322;22620;-71
2021/12/11 06:53:11;;;;;;;63.40;31.80;;;;;;;-0.77;83.71;97977.21;213724;1324;22591;-71
2021/12/11 06:58:13;;;;;;;63.60;31.80;;;;;;;-0.72;83.93;97993.38;214849;1317;24311;-72
2021/12/11 07:03:17;;;;;;;57.00;30.50;;;;;;;-0.69;83.77;98001.63;213966;1322;22615;-71
2021/12/11 07:08:22;;;;;;;58.60;29.70;;;;;;;-0.64;84.01;98004.67;213543;1323;22663;-71
2021/12/11 07:13:25;;;;;;;65.70;32.00;;;;;;;-0.57;84.02;98005.13;213571;1318;22626;-71
2021/12/11 07:18:33;;;;;;;54.00;29.70;;;;;;;-0.46;84.25;98009.59;213750;1321;25552;-71
2021/12/11 07:23:38;;;;;;;50.50;26.20;;;;;;;-0.32;83.99;98017.31;213462;1321;25550;-71
2021/12/11 07:28:43;;;;;;;59.20;28.40;;;;;;;-0.24;83.91;98027.66;213861;1322;25367;-71
2021/12/11 07:33:47;;;;;;;53.20;29.50;;;;;;;-0.16;83.88;98040.49;213476;1324;25278;-71
2021/12/11 07:38:50;;;;;;;58.90;31.20;;;;;;;0.02;84.01;98056.13;213816;1317;23344;-71
2021/12/11 07:43:55;;;;;;;52.00;27.90;;;;;;;0.18;84.35;98068.98;213795;1316;22710;-71
2021/12/11 07:49:10;;;;;;;54.50;30.90;;;;;;;0.28;83.94;98076.95;213876;1323;25262;-70
2021/12/11 07:54:15;;;;;;;52.60;28.70;;;;;;;0.43;84.47;98086.16;213865;1316;22609;-71
2021/12/11 07:59:18;;;;;;;48.90;25.70;;;;;;;0.58;84.23;98092.98;214336;1320;22604;-71
2021/12/11 08:04:21;;;;;;;48.30;25.20;;;;;;;0.68;83.51;98105.79;214389;1315;22599;-71
2021/12/11 08:09:25;;;;;;;56.60;29.80;;;;;;;0.74;83.33;98117.69;214702;1316;22603;-71
2021/12/11 08:14:28;;;;;;;63.10;28.70;;;;;;;0.79;82.96;98126.11;214254;1316;22610;-72
2021/12/11 08:19:32;;;;;;;54.90;29.80;;;;;;;0.81;82.62;98130.19;214021;1315;22645;-70
2021/12/11 08:24:40;;;;;;;61.30;30.70;;;;;;;0.85;82.45;98128.29;214038;1315;22793;-71
2021/12/11 08:29:45;;;;;;;59.60;29.60;;;;;;;1.00;82.51;98130.31;213722;1322;22599;-72
2021/12/11 08:35:00;;;;;;;38.00;20.90;;;;;;;1.16;82.37;98133.39;212409;1323;22677;-71
2021/12/11 08:40:19;;;;;;;39.60;22.80;;;;;;;1.32;81.77;98148.54;213930;1317;22658;-71
2021/12/11 08:45:44;;;;;;;43.00;24.10;;;;;;;1.41;81.43;98170.98;213936;1316;22590;-71
2021/12/11 08:50:52;;;;;;;48.60;24.50;;;;;;;1.48;81.47;98194.28;214232;1316;22574;-71
2021/12/11 08:55:55;;;;;;;46.30;23.60;;;;;;;1.51;80.78;98197.22;214051;1315;24368;-72
2021/12/11 09:01:07;;;;;;;39.90;22.30;;;;;;;1.52;80.89;98208.36;213556;1319;22751;-71
2021/12/11 09:06:20;;;;;;;38.20;21.00;;;;;;;1.58;80.77;98226.56;213837;1322;22580;-72
2021/12/11 09:11:52;;;;;;;37.80;20.60;;;;;;;1.62;80.38;98231.69;213989;1316;22593;-72
2021/12/11 09:17:26;;;;;;;40.60;22.00;;;;;;;1.64;80.09;98233.02;214060;1315;22585;-71
2021/12/11 09:23:00;;;;;;;45.70;24.60;;;;;;;1.80;80.84;98232.51;214526;1316;23111;-71
2021/12/11 09:28:12;;;;;;;37.60;20.60;;;;;;;1.98;80.41;98242.02;214012;1317;26311;-71
2021/12/11 09:33:30;;;;;;;27.90;15.60;;;;;;;2.09;80.07;98257.08;213789;1317;23738;-71
2021/12/11 09:38:39;;;;;;;28.60;14.80;;;;;;;2.05;79.01;98261.95;213976;1316;25733;-71
2021/12/11 09:44:15;;;;;;;26.80;12.70;;;;;;;1.98;78.68;98272.16;213756;1321;22555;-71
2021/12/11 09:49:23;;;;;;;23.10;12.50;;;;;;;1.90;78.44;98278.33;213288;1319;22756;-71
2021/12/11 09:55:12;;;;;;;17.10;9.30;;;;;;;1.90;78.35;98295.60;213861;1316;22659;-71
2021/12/11 10:00:24;;;;;;;14.90;9.20;;;;;;;1.83;77.88;98298.04;213985;1316;24264;-71
2021/12/11 10:05:36;;;;;;;14.10;8.20;;;;;;;1.85;77.87;98304.45;213731;1316;24785;-71
2021/12/11 10:10:39;;;;;;;14.50;9.00;;;;;;;1.86;77.76;98312.67;214152;1316;22576;-71
2021/12/11 10:15:42;;;;;;;11.50;7.00;;;;;;;1.87;77.80;98324.30;213835;1316;24254;-70
2021/12/11 10:20:44;;;;;;;10.80;6.90;;;;;;;1.90;77.71;98330.41;213651;1319;22519;-70
2021/12/11 10:25:50;;;;;;;10.70;6.50;;;;;;;1.90;76.98;98336.98;213739;1316;22567;-72
2021/12/11 10:30:57;;;;;;;11.50;6.90;;;;;;;1.83;76.66;98346.48;214000;1316;24360;-70
2021/12/11 10:36:14;;;;;;;9.60;5.90;;;;;;;1.71;76.20;98354.45;213367;1318;22729;-71
2021/12/11 10:41:31;;;;;;;12.10;8.00;;;;;;;1.76;77.01;98356.59;214006;1321;24429;-70
2021/12/11 10:47:00;;;;;;;10.60;7.50;;;;;;;1.94;77.37;98361.17;213928;1321;23037;-71
2021/12/11 10:52:30;;;;;;;13.20;8.10;;;;;;;2.06;77.23;98353.80;214016;1317;26414;-71
2021/12/11 10:57:33;;;;;;;15.60;9.20;;;;;;;2.12;76.72;98361.44;213465;1319;22680;-70
2021/12/11 11:02:36;;;;;;;14.60;8.50;;;;;;;2.22;76.88;98357.98;212371;1316;25524;-70
2021/12/11 11:07:39;;;;;;;17.40;11.10;;;;;;;2.29;76.60;98358.16;212626;1316;22677;-71
2021/12/11 11:12:41;;;;;;;17.10;8.80;;;;;;;2.39;76.93;98365.39;213682;1318;22771;-70
2021/12/11 11:17:44;;;;;;;17.90;11.30;;;;;;;2.39;76.14;98369.46;213739;1316;24266;-70
2021/12/11 11:22:47;;;;;;;19.60;11.90;;;;;;;2.40;76.40;98372.34;213477;1318;22599;-70
2021/12/11 11:28:00;;;;;;;22.00;12.90;;;;;;;2.40;76.25;98374.13;213675;1315;22726;-70
2021/12/11 11:33:07;;;;;;;23.40;13.30;;;;;;;2.42;76.29;98381.23;213963;1318;22589;-71
2021/12/11 11:38:22;;;;;;;21.50;13.10;;;;;;;2.42;76.05;98382.14;213843;1317;22733;-72
2021/12/11 11:43:26;;;;;;;20.60;11.10;;;;;;;2.39;75.60;98384.69;213834;1318;22673;-67
2021/12/11 11:48:31;;;;;;;24.80;14.40;;;;;;;2.40;75.88;98383.27;215942;1316;22714;-71
2021/12/11 11:53:43;;;;;;;21.20;12.90;;;;;;;2.50;76.15;98384.10;214024;1317;22629;-70
2021/12/11 11:58:46;;;;;;;20.80;10.70;;;;;;;2.55;75.77;98387.70;214073;1316;22629;-72
2021/12/11 12:03:50;;;;;;;20.40;11.20;;;;;;;2.45;74.90;98397.51;213495;1323;22614;-70
2021/12/11 12:08:59;;;;;;;20.00;11.70;;;;;;;2.34;75.11;98406.98;212726;1324;22587;-71
2021/12/11 12:14:05;;;;;;;17.80;11.20;;;;;;;2.32;75.42;98408.02;213229;1323;23110;-70
2021/12/11 12:19:08;;;;;;;21.40;11.30;;;;;;;2.30;75.16;98411.21;212715;1323;22586;-72
2021/12/11 12:24:14;;;;;;;15.90;9.60;;;;;;;2.25;75.03;98412.95;213722;1317;22533;-71
2021/12/11 12:29:20;;;;;;;14.90;8.70;;;;;;;2.26;74.87;98417.44;213471;1323;22740;-71
2021/12/11 12:34:34;;;;;;;13.60;8.70;;;;;;;2.27;74.97;98419.58;213632;1323;22593;-72
2021/12/11 12:39:45;;;;;;;12.80;7.40;;;;;;;2.23;74.37;98428.92;213784;1315;22742;-71
2021/12/11 12:45:23;;;;;;;12.20;7.60;;;;;;;2.04;73.53;98423.31;213537;1319;23076;-72
2021/12/11 12:50:42;;;;;;;14.10;8.80;;;;;;;1.90;73.75;98428.27;213549;1323;26748;-72
2021/12/11 12:55:55;;;;;;;15.90;9.30;;;;;;;1.83;73.94;98428.59;213792;1323;25371;-71
2021/12/11 13:01:12;;;;;;;13.40;8.10;;;;;;;1.78;74.07;98423.43;213484;1323;22903;-70
2021/12/11 13:06:20;;;;;;;16.40;9.30;;;;;;;1.76;74.08;98434.48;213892;1320;22595;-71
2021/12/11 13:11:38;;;;;;;15.60;10.10;;;;;;;1.74;74.47;98440.43;213968;1322;22648;-71
2021/12/11 13:16:58;;;;;;;15.20;9.70;;;;;;;1.70;74.28;98434.75;213576;1325;24401;-71
2021/12/11 13:22:30;;;;;;;15.00;8.40;;;;;;;1.63;74.43;98432.69;213431;1318;25514;-72
2021/12/11 13:28:03;;;;;;;14.30;9.10;;;;;;;1.48;73.95;98435.18;213339;1322;22626;-71
2021/12/11 13:33:06;;;;;;;15.60;9.60;;;;;;;1.35;74.17;98440.80;213815;1320;22568;-71
2021/12/11 13:38:12;;;;;;;15.50;9.80;;;;;;;1.25;74.33;98443.63;213291;1320;261312;-72
2021/12/11 13:43:19;;;;;;;14.90;9.50;;;;;;;1.16;74.61;98453.54;213735;1325;25454;-72
2021/12/11 13:48:26;;;;;;;16.40;10.20;;;;;;;1.07;74.59;98457.27;213963;1320;24455;-70
2021/12/11 13:53:33;;;;;;;16.80;10.30;;;;;;;0.98;74.72;98459.46;212818;1315;24318;-71
2021/12/11 13:58:46;;;;;;;18.30;11.10;;;;;;;0.90;75.10;98469.59;213919;1315;22643;-72
2021/12/11 14:03:51;;;;;;;21.50;11.80;;;;;;;0.79;75.04;98477.32;212965;1323;22586;-72
2021/12/11 14:09:05;;;;;;;19.20;11.60;;;;;;;0.60;75.30;98490.05;213750;1316;24465;-72
2021/12/11 14:14:11;;;;;;;17.60;11.40;;;;;;;0.41;74.99;98501.17;214008;1317;22778;-72
2021/12/11 14:19:20;;;;;;;29.10;16.70;;;;;;;0.27;75.56;98505.37;214074;1321;22639;-72
2021/12/11 14:24:28;;;;;;;36.30;21.10;;;;;;;0.18;75.86;98516.34;214225;1315;22601;-70
2021/12/11 14:29:33;;;;;;;22.70;13.10;;;;;;;0.11;76.15;98530.45;214042;1323;25479;-71
2021/12/11 14:34:35;;;;;;;26.00;13.60;;;;;;;0.04;76.41;98547.18;213890;1323;23088;-72
2021/12/11 14:39:46;;;;;;;27.40;14.60;;;;;;;-0.08;76.67;98557.52;213667;1323;22689;-72
2021/12/11 14:44:59;;;;;;;25.80;14.30;;;;;;;-0.17;77.04;98573.68;213890;1317;22587;-72
2021/12/11 14:50:29;;;;;;;23.30;13.50;;;;;;;-0.25;76.75;98585.58;213616;1323;22626;-72
2021/12/11 14:56:05;;;;;;;29.00;16.80;;;;;;;-0.24;77.18;98594.35;213570;1323;25275;-71
2021/12/11 15:01:18;;;;;;;26.90;14.70;;;;;;;-0.14;77.11;98600.02;213588;1323;25424;-72
2021/12/11 15:06:35;;;;;;;31.10;16.20;;;;;;;-0.04;77.59;98609.92;213732;1322;26535;-70
2021/12/11 15:11:41;;;;;;;28.60;14.60;;;;;;;0.05;77.55;98618.00;213767;1323;25514;-71
2021/12/11 15:17:11;;;;;;;27.30;14.80;;;;;;;0.09;77.31;98623.01;213849;1323;22667;-72
2021/12/11 15:22:23;;;;;;;28.60;16.20;;;;;;;0.14;77.51;98633.48;213575;1317;22645;-71
2021/12/11 15:27:27;;;;;;;31.80;17.90;;;;;;;0.21;77.51;98643.20;213523;1321;22573;-70
2021/12/11 15:32:32;;;;;;;69.40;33.20;;;;;;;0.28;77.42;98656.96;213770;1322;22771;-70
2021/12/11 15:37:45;;;;;;;77.10;35.90;;;;;;;0.30;77.35;98657.54;213972;1323;22581;-71
2021/12/11 15:43:07;;;;;;;;;;;;;;;;;;;;;
2021/12/11 15:48:48;;;;;;;43.30;21.30;;;;;;;0.48;77.97;98683.00;213602;1322;23353;-71
2021/12/11 15:53:54;;;;;;;34.30;18.80;;;;;;;0.51;77.86;98683.64;213498;1323;22616;-72
2021/12/11 15:59:05;;;;;;;44.50;24.20;;;;;;;0.47;77.58;98690.40;213607;1319;22590;-72
2021/12/11 16:04:25;;;;;;;42.90;22.90;;;;;;;0.48;77.69;98702.86;213428;1322;24309;-71
2021/12/11 16:09:31;;;;;;;44.50;24.20;;;;;;;0.56;77.69;98705.80;213874;1323;22581;-71
2021/12/11 16:14:45;;;;;;;59.30;30.20;;;;;;;0.63;77.82;98708.26;213839;1323;22576;-71
2021/12/11 16:19:54;;;;;;;44.60;24.90;;;;;;;0.65;77.60;98710.46;213898;1319;24228;-72
2021/12/11 16:25:09;;;;;;;50.30;25.20;;;;;;;0.62;77.49;98723.36;213511;1322;22573;-72
2021/12/11 16:30:24;;;;;;;56.50;29.60;;;;;;;0.61;77.73;98724.18;214014;1316;22645;-72
2021/12/11 16:35:32;;;;;;;41.30;23.40;;;;;;;0.65;77.74;98730.92;213616;1319;25331;-71
2021/12/11 16:40:46;;;;;;;41.70;22.70;;;;;;;0.69;77.83;98737.45;213401;1322;22803;-72
2021/12/11 16:45:55;;;;;;;41.20;20.70;;;;;;;0.74;77.89;98736.11;213606;1315;23264;-72
2021/12/11 16:56:35;;;;;;;27.90;16.50;;;;;;;0.68;77.04;98738.55;214069;1316;25355;-71
2021/12/11 17:01:47;;;;;;;32.10;18.30;;;;;;;0.59;77.17;98749.92;214269;1323;23806;-72
2021/12/11 17:07:11;;;;;;;27.50;15.80;;;;;;;0.53;77.01;98753.23;213613;1319;22590;-71
2021/12/11 17:12:19;;;;;;;27.90;15.30;;;;;;;0.51;77.27;98762.84;213938;1316;22735;-71
2021/12/11 17:17:24;;;;;;;32.10;17.00;;;;;;;0.53;77.17;98769.99;213767;1323;22579;-72
2021/12/11 17:22:32;;;;;;;33.00;17.40;;;;;;;0.52;77.20;98779.14;213875;1323;25384;-71
2021/12/11 17:27:34;;;;;;;33.50;18.00;;;;;;;0.48;77.27;98792.96;213774;1315;22685;-71
2021/12/11 17:32:42;;;;;;;36.50;18.10;;;;;;;0.45;77.33;98802.67;213938;1323;23125;-72
2021/12/11 17:38:22;;;;;;;34.40;17.50;;;;;;;0.40;77.14;98810.59;213916;1315;22650;-71
2021/12/11 17:43:25;;;;;;;44.30;23.20;;;;;;;0.32;77.09;98815.76;213926;1320;24897;-71
2021/12/11 17:48:28;;;;;;;47.00;24.40;;;;;;;0.27;76.92;98818.88;213834;1323;24227;-71
2021/12/11 17:53:33;;;;;;;49.10;24.40;;;;;;;0.30;77.11;98823.34;214058;1322;24373;-71
2021/12/11 17:59:05;;;;;;;51.00;26.60;;;;;;;0.33;77.08;98821.69;213953;1323;22632;-72
2021/12/11 18:04:40;;;;;;;44.90;25.80;;;;;;;0.35;77.62;98827.48;214017;1323;22569;-71
2021/12/11 18:09:47;;;;;;;55.10;27.90;;;;;;;0.38;77.55;98838.39;214084;1322;23101;-71
2021/12/11 18:15:02;;;;;;;53.30;29.50;;;;;;;0.35;77.04;98846.15;215279;1324;22819;-72
2021/12/11 18:20:39;;;;;;;50.30;25.30;;;;;;;0.32;76.90;98849.85;213808;1323;22596;-72
2021/12/11 18:26:37;;;;;;;;;;;;;;;;;;;;;
2021/12/11 18:31:43;;;;;;;47.30;23.70;;;;;;;0.30;77.49;98868.04;213719;1323;24123;-71
2021/12/11 18:36:50;;;;;;;56.60;28.70;;;;;;;0.31;77.56;98875.73;213368;1322;22719;-72
2021/12/11 18:42:05;;;;;;;54.80;29.50;;;;;;;0.35;77.39;98880.09;213915;1322;22576;-71
2021/12/11 18:47:09;;;;;;;54.80;29.20;;;;;;;0.41;77.30;98884.86;213835;1323;22680;-72
2021/12/11 18:52:22;;;;;;;52.00;27.50;;;;;;;0.43;77.31;98892.09;213780;1320;22670;-72
2021/12/11 18:57:52;;;;;;;51.70;27.10;;;;;;;0.40;77.36;98900.89;213969;1323;22634;-72
2021/12/11 19:03:14;;;;;;;58.30;31.20;;;;;;;0.33;77.18;98903.06;212754;1323;24309;-70
2021/12/11 19:08:27;;;;;;;56.30;28.30;;;;;;;0.34;77.37;98915.09;213927;1320;23767;-72
2021/12/11 19:13:53;;;;;;;63.90;32.30;;;;;;;0.40;77.63;98927.16;213977;1323;22645;-70
2021/12/11 19:18:57;;;;;;;68.60;32.60;;;;;;;0.40;77.35;98931.42;212653;1319;22685;-70
2021/12/11 19:24:04;;;;;;;76.80;39.10;;;;;;;0.34;77.38;98931.28;212435;1323;22796;-70
2021/12/11 19:29:12;;;;;;;68.60;34.20;;;;;;;0.27;77.00;98940.63;212514;1323;24676;-71
2021/12/11 19:34:31;;;;;;;81.20;38.70;;;;;;;0.25;77.31;98948.66;212547;1323;22590;-72
2021/12/11 19:39:48;;;;;;;109.20;49.50;;;;;;;0.30;77.63;98957.01;213815;1315;22709;-72
2021/12/11 19:44:51;;;;;;;115.40;53.40;;;;;;;0.37;77.58;98961.33;213642;1323;25527;-72
2021/12/11 19:49:55;;;;;;;129.70;58.70;;;;;;;0.42;77.81;98969.67;214320;1323;25630;-72
2021/12/11 19:55:00;;;;;;;96.20;47.50;;;;;;;0.40;77.69;98979.06;213883;1323;25387;-71
2021/12/11 20:00:24;;;;;;;78.20;37.50;;;;;;;0.37;77.18;98991.27;213528;1322;22626;-71
2021/12/11 20:05:52;;;;;;;68.10;35.70;;;;;;;0.35;77.20;98998.17;213055;1317;22678;-71
2021/12/11 20:11:40;;;;;;;64.20;32.50;;;;;;;0.37;77.16;99008.94;213816;1323;24318;-72
2021/12/11 20:16:46;;;;;;;60.80;30.10;;;;;;;0.36;77.01;99018.46;213919;1319;25434;-72
2021/12/11 20:22:11;;;;;;;58.50;29.20;;;;;;;0.36;77.08;99030.92;213904;1323;22755;-71
2021/12/11 20:27:34;;;;;;;56.20;25.80;;;;;;;0.35;76.99;99039.44;213922;1317;24415;-71
2021/12/11 20:32:50;;;;;;;;;;;;;;;;;;;;;
2021/12/11 20:37:55;;;;;;;47.00;22.90;;;;;;;0.34;76.88;99054.05;213971;1316;22721;-71
2021/12/11 20:43:02;;;;;;;42.80;23.90;;;;;;;0.35;77.22;99057.08;213892;1323;25416;-72
2021/12/11 20:48:05;;;;;;;44.50;23.20;;;;;;;0.37;77.07;99068.89;213392;1323;25485;-72
2021/12/11 20:53:11;;;;;;;39.20;22.10;;;;;;;0.39;77.28;99073.38;213455;1322;22599;-72
2021/12/11 20:58:21;;;;;;;41.90;21.90;;;;;;;0.38;77.03;99068.04;213581;1322;22665;-72
2021/12/11 21:03:41;;;;;;;36.20;18.60;;;;;;;0.37;77.14;99081.27;212776;1323;22660;-71
2021/12/11 21:08:59;;;;;;;37.20;19.70;;;;;;;0.41;76.79;99091.20;213619;1323;25375;-75
2021/12/11 21:14:07;;;;;;;28.30;16.30;;;;;;;0.49;76.99;99097.52;213874;1323;22586;-75
2021/12/11 21:19:18;;;;;;;30.50;17.80;;;;;;;0.51;76.75;99107.21;214200;1323;22623;-74
2021/12/11 21:24:38;;;;;;;38.40;20.50;;;;;;;0.48;76.76;99117.96;213918;1323;24464;-75
2021/12/11 21:30:08;;;;;;;42.80;22.10;;;;;;;0.46;76.69;99130.92;213520;1319;22593;-74
2021/12/11 21:35:37;;;;;;;40.30;21.10;;;;;;;0.44;76.64;99135.18;213529;1322;223435;-75
2021/12/11 21:41:09;;;;;;;41.80;22.50;;;;;;;0.48;76.68;99129.32;213621;1321;22639;-73
2021/12/11 21:46:16;;;;;;;40.70;20.30;;;;;;;0.56;76.74;99138.40;213734;1324;22633;-74
2021/12/11 21:51:24;;;;;;;34.20;19.90;;;;;;;0.63;76.62;99147.52;213967;1320;24314;-73
2021/12/11 21:56:41;;;;;;;37.70;19.80;;;;;;;0.61;76.23;99170.12;214402;1323;22606;-74
2021/12/11 22:02:45;;;;;;;39.40;19.40;;;;;;;0.50;76.03;99178.90;214019;1322;23109;-75
2021/12/11 22:08:07;;;;;;;41.30;21.10;;;;;;;0.45;76.29;99187.58;214079;1323;22658;-76
2021/12/11 22:13:15;;;;;;;46.10;22.80;;;;;;;0.44;76.22;99190.54;213632;1323;22626;-75
2021/12/11 22:18:24;;;;;;;42.70;21.90;;;;;;;0.43;76.41;99197.23;213798;1323;24233;-74
2021/12/11 22:23:31;;;;;;;42.30;21.80;;;;;;;0.38;76.53;99207.56;213906;1323;22589;-75
2021/12/11 22:28:34;;;;;;;41.10;22.30;;;;;;;0.30;76.41;99204.85;213666;1323;22682;-73
2021/12/11 22:33:39;;;;;;;45.10;23.90;;;;;;;0.25;76.47;99206.79;213752;1322;22603;-73
2021/12/11 22:39:17;;;;;;;47.50;24.00;;;;;;;0.21;76.83;99201.73;213741;1322;22590;-74
2021/12/11 22:44:46;;;;;;;44.40;23.30;;;;;;;0.15;77.23;99199.60;213878;1323;22637;-74
2021/12/11 22:50:04;;;;;;;54.00;26.10;;;;;;;0.08;76.89;99194.46;213995;1323;25422;-74
2021/12/11 22:55:18;;;;;;;49.50;25.40;;;;;;;0.06;77.33;99191.21;213881;1323;22608;-74
2021/12/11 23:01:24;;;;;;;;;;;;;;;;;;;;;
2021/12/11 23:07:05;;;;;;;48.80;24.80;;;;;;;0.07;77.84;99188.78;214228;1323;23045;-75
2021/12/11 23:12:28;;;;;;;49.70;24.30;;;;;;;0.06;77.92;99187.21;213781;1323;25534;-73
2021/12/11 23:17:48;;;;;;;46.20;23.40;;;;;;;0.02;77.96;99183.70;213636;1323;25549;-74
2021/12/11 23:23:11;;;;;;;41.60;23.10;;;;;;;-0.00;78.07;99189.02;213528;1325;24192;-75
2021/12/11 23:29:20;;;;;;;43.30;22.90;;;;;;;0.03;78.15;99188.55;213690;1325;24331;-74
2021/12/11 23:35:09;;;;;;;41.20;22.70;;;;;;;0.02;78.29;99184.92;213554;1324;24331;-74
2021/12/11 23:41:36;;;;;;;41.70;21.50;;;;;;;-0.04;78.08;99192.99;213575;1318;22591;-75
2021/12/11 23:47:24;;;;;;;;;;;;;;;;;;;;;
2021/12/11 23:53:55;;;;;;;44.10;23.10;;;;;;;-0.02;78.56;99201.90;213672;1325;25339;-74
2021/12/11 23:59:12;;;;;;;42.50;22.10;;;;;;;-0.04;78.55;99196.52;213585;1324;25486;-75
